createdAt,value
2022-07-29T00:01:44.980Z,44.38
2022-07-29T00:04:14.773Z,44.33
2022-07-29T00:06:43.905Z,44.56
2022-07-29T00:09:13.000Z,44.22
2022-07-29T00:11:41.841Z,44.39
2022-07-29T00:14:13.392Z,44.16
2022-07-29T00:16:42.896Z,44.39
2022-07-29T00:19:11.775Z,44.56
2022-07-29T00:21:41.544Z,44.45
2022-07-29T00:24:10.572Z,44.49
2022-07-29T00:26:39.392Z,44.50
2022-07-29T00:31:58.450Z,45.03
2022-07-29T00:34:44.471Z,44.99
2022-07-29T00:37:13.446Z,45.37
2022-07-29T00:39:42.237Z,45.78
2022-07-29T00:42:11.089Z,45.88
2022-07-29T00:44:40.583Z,45.96
2022-07-29T00:47:12.087Z,46.09
2022-07-29T00:49:41.940Z,46.29
2022-07-29T00:52:12.354Z,46.13
2022-07-29T00:57:14.637Z,45.76
2022-07-29T00:59:43.410Z,45.39
2022-07-29T01:02:14.038Z,45.45
2022-07-29T01:04:43.695Z,45.85
2022-07-29T01:07:13.454Z,46.16
2022-07-29T01:09:46.942Z,46.29
2022-07-29T01:12:19.787Z,46.54
2022-07-29T01:14:50.277Z,46.71
2022-07-29T01:17:26.636Z,46.99
2022-07-29T01:20:01.013Z,47.12
2022-07-29T01:22:39.658Z,47.35
2022-07-29T01:25:32.824Z,47.73
2022-07-29T01:28:20.073Z,47.94
2022-07-29T01:30:56.546Z,47.95
2022-07-29T01:33:46.719Z,48.13
2022-07-29T01:36:19.782Z,48.30
2022-07-29T01:38:56.622Z,48.47
2022-07-29T01:41:26.264Z,48.80
2022-07-29T01:43:59.845Z,48.52
2022-07-29T01:46:34.186Z,48.38
2022-07-29T01:49:11.341Z,48.33
2022-07-29T01:51:46.540Z,48.07
2022-07-29T01:54:21.056Z,48.13
2022-07-29T01:56:53.619Z,48.38
2022-07-29T01:59:24.575Z,48.64
2022-07-29T02:01:57.030Z,48.87
2022-07-29T02:04:33.571Z,49.01
2022-07-29T02:07:05.117Z,48.67
2022-07-29T02:09:36.107Z,48.63
2022-07-29T02:12:08.223Z,48.97
2022-07-29T02:14:40.763Z,48.79
2022-07-29T02:17:11.444Z,48.80
2022-07-29T02:19:41.127Z,49.08
2022-07-29T02:22:13.243Z,49.36
2022-07-29T02:24:43.333Z,49.31
2022-07-29T02:27:12.935Z,49.23
2022-07-29T02:29:42.964Z,49.17
2022-07-29T02:32:16.206Z,48.83
2022-07-29T02:34:47.200Z,49.14
2022-07-29T02:37:18.115Z,49.39
2022-07-29T02:39:50.352Z,49.47
2022-07-29T02:42:21.119Z,49.44
2022-07-29T02:44:50.051Z,49.74
2022-07-29T02:47:25.871Z,49.70
2022-07-29T02:50:02.715Z,49.65
2022-07-29T02:52:37.777Z,49.73
2022-07-29T02:55:14.803Z,49.70
2022-07-29T02:57:54.678Z,49.53
2022-07-29T03:00:30.116Z,49.68
2022-07-29T03:03:04.419Z,49.95
2022-07-29T03:05:34.071Z,49.89
2022-07-29T03:08:05.289Z,49.63
2022-07-29T03:10:35.342Z,49.43
2022-07-29T03:13:04.607Z,49.56
2022-07-29T03:15:34.300Z,49.71
2022-07-29T03:18:05.533Z,49.97
2022-07-29T03:20:34.691Z,50.12
2022-07-29T03:23:03.550Z,50.10
2022-07-29T03:25:32.658Z,50.12
2022-07-29T03:28:02.424Z,50.37
2022-07-29T03:30:31.902Z,50.36
2022-07-29T03:33:01.039Z,50.57
2022-07-29T03:35:32.870Z,50.34
2022-07-29T03:38:01.960Z,50.41
2022-07-29T03:40:36.342Z,50.39
2022-07-29T03:43:08.461Z,50.38
2022-07-29T03:45:37.763Z,50.39
2022-07-29T03:48:11.183Z,50.25
2022-07-29T03:50:41.879Z,50.20
2022-07-29T03:53:11.087Z,50.30
2022-07-29T03:55:44.600Z,50.20
2022-07-29T03:58:15.057Z,50.07
2022-07-29T04:00:45.161Z,49.65
2022-07-29T04:03:15.739Z,49.38
2022-07-29T04:05:46.204Z,49.35
2022-07-29T04:08:14.978Z,49.52
2022-07-29T04:10:43.841Z,49.65
2022-07-29T04:13:12.628Z,49.73
2022-07-29T04:15:41.544Z,49.75
2022-07-29T04:18:10.343Z,50.11
2022-07-29T04:20:39.147Z,50.28
2022-07-29T04:23:09.422Z,50.32
2022-07-29T04:25:40.958Z,50.30
2022-07-29T04:28:10.439Z,50.60
2022-07-29T04:30:40.702Z,50.50
2022-07-29T04:33:10.206Z,50.50
2022-07-29T04:35:49.892Z,50.57
2022-07-29T04:38:21.020Z,50.54
2022-07-29T04:40:49.977Z,50.70
2022-07-29T04:43:22.632Z,50.89
2022-07-29T04:45:52.586Z,51.04
2022-07-29T04:48:26.703Z,51.07
2022-07-29T04:50:57.660Z,51.28
2022-07-29T04:53:28.135Z,51.34
2022-07-29T04:55:57.077Z,51.13
2022-07-29T04:58:25.980Z,50.61
2022-07-29T05:00:54.750Z,50.43
2022-07-29T05:03:23.810Z,50.62
2022-07-29T05:05:52.659Z,50.79
2022-07-29T05:08:21.424Z,50.99
2022-07-29T05:10:51.755Z,50.95
2022-07-29T05:13:20.627Z,50.78
2022-07-29T05:15:49.555Z,50.69
2022-07-29T05:18:19.437Z,50.58
2022-07-29T05:20:48.274Z,50.34
2022-07-29T05:23:18.852Z,50.20
2022-07-29T05:25:47.562Z,50.34
2022-07-29T05:28:17.834Z,50.62
2022-07-29T05:30:46.842Z,50.63
2022-07-29T05:33:36.023Z,50.58
2022-07-29T05:36:06.709Z,51.37
2022-07-29T05:38:35.621Z,52.37
2022-07-29T05:41:04.476Z,54.21
2022-07-29T05:43:34.853Z,55.18
2022-07-29T05:46:03.719Z,55.72
2022-07-29T05:48:32.559Z,55.68
2022-07-29T05:51:02.621Z,55.41
2022-07-29T05:53:31.514Z,56.11
2022-07-29T05:56:00.430Z,56.58
2022-07-29T05:58:30.391Z,56.81
2022-07-29T06:01:01.851Z,56.60
2022-07-29T06:03:31.458Z,56.14
2022-07-29T06:06:00.532Z,56.30
2022-07-29T06:08:29.274Z,56.35
2022-07-29T06:10:58.208Z,56.47
2022-07-29T06:13:27.086Z,56.41
2022-07-29T06:15:56.134Z,56.50
2022-07-29T06:18:26.372Z,55.48
2022-07-29T06:20:56.398Z,55.54
2022-07-29T06:23:25.335Z,55.57
2022-07-29T06:25:54.191Z,55.37
2022-07-29T06:28:22.954Z,55.49
2022-07-29T06:30:51.813Z,54.04
2022-07-29T06:33:22.028Z,54.02
2022-07-29T06:35:55.076Z,53.66
2022-07-29T06:38:33.872Z,53.17
2022-07-29T06:41:04.123Z,53.55
2022-07-29T06:43:35.173Z,53.97
2022-07-29T06:46:06.102Z,53.98
2022-07-29T06:48:36.097Z,53.20
2022-07-29T06:51:07.802Z,52.15
2022-07-29T06:53:37.836Z,51.60
2022-07-29T06:56:09.503Z,50.34
2022-07-29T06:58:39.390Z,50.25
2022-07-29T07:01:08.749Z,49.67
2022-07-29T07:03:37.616Z,50.17
2022-07-29T07:06:10.799Z,50.14
2022-07-29T07:08:43.552Z,49.77
2022-07-29T07:11:12.482Z,49.90
2022-07-29T07:13:41.382Z,50.25
2022-07-29T07:16:10.212Z,51.31
2022-07-29T07:18:39.152Z,52.38
2022-07-29T07:21:09.380Z,53.88
2022-07-29T07:23:38.247Z,54.02
2022-07-29T07:26:07.479Z,55.11
2022-07-29T07:28:38.486Z,55.83
2022-07-29T07:31:08.338Z,56.23
2022-07-29T07:33:37.170Z,56.46
2022-07-29T07:36:06.164Z,55.37
2022-07-29T07:38:36.663Z,54.68
2022-07-29T07:41:05.989Z,54.53
2022-07-29T07:43:35.231Z,54.53
2022-07-29T07:46:04.214Z,55.13
2022-07-29T07:48:33.173Z,55.67
2022-07-29T07:51:02.091Z,54.94
2022-07-29T07:53:34.797Z,53.96
2022-07-29T07:56:11.061Z,53.87
2022-07-29T07:58:41.019Z,53.53
2022-07-29T08:01:10.147Z,53.31
2022-07-29T08:03:40.111Z,53.43
2022-07-29T08:06:09.511Z,53.68
2022-07-29T08:08:38.321Z,53.02
2022-07-29T08:11:09.656Z,52.53
2022-07-29T08:13:39.998Z,53.21
2022-07-29T08:16:16.688Z,52.97
2022-07-29T08:18:47.207Z,53.02
2022-07-29T08:21:17.537Z,52.64
2022-07-29T08:23:58.748Z,52.10
2022-07-29T08:26:31.170Z,51.49
2022-07-29T08:29:00.027Z,51.88
2022-07-29T08:31:28.818Z,51.87
2022-07-29T08:34:00.980Z,51.97
2022-07-29T08:36:29.779Z,52.26
2022-07-29T08:38:58.611Z,52.37
2022-07-29T08:41:27.786Z,52.13
2022-07-29T08:43:58.601Z,53.71
2022-07-29T08:46:27.638Z,54.34
2022-07-29T08:48:57.846Z,54.97
2022-07-29T08:51:28.071Z,55.13
2022-07-29T08:53:57.779Z,55.34
2022-07-29T08:56:26.951Z,54.77
2022-07-29T08:59:00.466Z,54.49
2022-07-29T09:01:42.371Z,53.44
2022-07-29T09:04:14.345Z,52.74
2022-07-29T09:06:47.289Z,52.54
2022-07-29T09:09:17.970Z,52.12
2022-07-29T09:11:47.215Z,51.90
2022-07-29T09:14:18.654Z,51.64
2022-07-29T09:16:54.365Z,51.51
2022-07-29T09:19:26.576Z,50.89
2022-07-29T09:22:03.328Z,51.39
2022-07-29T09:24:46.462Z,51.20
2022-07-29T09:27:27.670Z,51.25
2022-07-29T09:30:02.370Z,51.68
2022-07-29T09:32:32.669Z,51.46
2022-07-29T09:35:17.841Z,51.77
2022-07-29T09:37:47.562Z,52.03
2022-07-29T09:40:19.004Z,52.29
2022-07-29T09:42:48.175Z,52.09
2022-07-29T09:45:29.817Z,52.71
2022-07-29T09:48:01.569Z,54.11
2022-07-29T09:50:41.328Z,54.42
2022-07-29T09:53:11.793Z,55.36
2022-07-29T09:55:51.709Z,55.04
2022-07-29T09:58:22.594Z,55.91
2022-07-29T10:00:54.226Z,55.68
2022-07-29T10:03:24.353Z,56.61
2022-07-29T10:06:08.656Z,57.38
2022-07-29T10:08:37.641Z,57.79
2022-07-29T10:11:13.243Z,58.06
2022-07-29T10:13:44.468Z,58.24
2022-07-29T10:16:16.228Z,57.23
2022-07-29T10:18:48.047Z,56.84
2022-07-29T10:21:35.586Z,56.00
2022-07-29T10:24:06.603Z,55.16
2022-07-29T10:26:42.071Z,52.00
2022-07-29T10:29:11.015Z,51.29
2022-07-29T10:31:52.533Z,50.91
2022-07-29T10:34:34.350Z,50.34
2022-07-29T10:37:11.452Z,48.99
2022-07-29T10:39:51.705Z,47.75
2022-07-29T10:42:29.624Z,47.17
2022-07-29T10:45:04.405Z,45.90
2022-07-29T10:47:35.388Z,44.78
2022-07-29T10:50:06.296Z,44.62
2022-07-29T10:52:58.859Z,44.03
2022-07-29T10:58:28.400Z,43.64
2022-07-29T11:00:57.925Z,43.92
2022-07-29T11:03:52.210Z,42.82
2022-07-29T11:06:26.949Z,42.99
2022-07-29T11:09:20.251Z,42.09
2022-07-29T11:11:54.734Z,42.14
2022-07-29T11:15:00.441Z,41.94
2022-07-29T11:17:46.914Z,42.21
2022-07-29T11:20:37.998Z,41.61
2022-07-29T11:23:27.761Z,42.10
2022-07-29T11:26:22.998Z,41.63
2022-07-29T11:28:56.944Z,41.18
2022-07-29T11:31:39.161Z,41.02
2022-07-29T11:34:22.671Z,41.03
2022-07-29T11:37:18.425Z,40.30
2022-07-29T11:39:51.072Z,39.59
2022-07-29T11:42:44.504Z,39.25
2022-07-29T11:45:41.557Z,38.38
2022-07-29T11:48:29.643Z,37.68
2022-07-29T11:50:58.498Z,37.63
2022-07-29T11:53:32.629Z,37.36
2022-07-29T11:56:03.895Z,36.85
2022-07-29T11:58:33.724Z,36.30
2022-07-29T12:01:04.173Z,35.74
2022-07-29T12:03:35.742Z,35.95
2022-07-29T12:06:13.776Z,35.80
2022-07-29T12:08:45.835Z,35.61
2022-07-29T12:11:20.801Z,35.32
2022-07-29T12:13:51.361Z,35.83
2022-07-29T12:16:28.022Z,35.88
2022-07-29T12:18:59.994Z,35.30
2022-07-29T12:21:29.422Z,34.67
2022-07-29T12:24:05.866Z,34.65
2022-07-29T12:26:40.399Z,34.65
2022-07-29T12:29:11.463Z,34.53
2022-07-29T12:31:45.466Z,35.19
2022-07-29T12:34:17.561Z,34.66
2022-07-29T12:36:46.642Z,34.58
2022-07-29T12:39:19.135Z,34.87
2022-07-29T12:41:48.013Z,34.81
2022-07-29T12:44:16.850Z,34.48
2022-07-29T12:46:47.753Z,34.46
2022-07-29T12:49:24.631Z,34.53
2022-07-29T12:51:53.503Z,34.29
2022-07-29T12:54:23.702Z,33.89
2022-07-29T12:57:01.878Z,33.99
2022-07-29T12:59:30.792Z,33.65
2022-07-29T13:02:01.252Z,33.42
2022-07-29T13:04:32.472Z,32.65
2022-07-29T13:07:04.793Z,33.07
2022-07-29T13:09:42.855Z,32.47
2022-07-29T13:12:13.740Z,32.05
2022-07-29T13:14:44.526Z,32.30
2022-07-29T13:17:16.904Z,32.53
2022-07-29T13:19:47.668Z,32.60
2022-07-29T13:22:18.178Z,32.38
2022-07-29T13:24:55.832Z,32.01
2022-07-29T13:27:26.308Z,31.94
2022-07-29T13:29:57.761Z,31.62
2022-07-29T13:32:28.590Z,31.17
2022-07-29T13:34:58.422Z,31.64
2022-07-29T13:37:30.801Z,31.54
2022-07-29T13:40:01.452Z,31.72
2022-07-29T13:42:30.259Z,31.59
2022-07-29T13:44:59.059Z,31.71
2022-07-29T13:47:32.648Z,31.05
2022-07-29T13:50:02.434Z,31.49
2022-07-29T13:52:31.356Z,30.88
2022-07-29T13:55:02.613Z,30.99
2022-07-29T13:57:31.887Z,30.33
2022-07-29T14:00:00.671Z,30.13
2022-07-29T14:02:29.670Z,30.55
2022-07-29T14:04:58.973Z,30.23
2022-07-29T14:07:27.956Z,29.97
2022-07-29T14:09:56.643Z,29.54
2022-07-29T14:12:27.002Z,29.66
2022-07-29T14:14:55.802Z,29.86
2022-07-29T14:17:24.723Z,29.76
2022-07-29T14:19:53.640Z,29.96
2022-07-29T14:22:25.368Z,30.03
2022-07-29T14:24:54.646Z,30.30
2022-07-29T14:27:37.619Z,29.69
2022-07-29T14:30:10.722Z,29.61
2022-07-29T14:32:39.623Z,30.01
2022-07-29T14:35:09.166Z,29.64
2022-07-29T14:37:40.381Z,29.73
2022-07-29T14:40:11.571Z,29.76
2022-07-29T14:42:40.996Z,30.04
2022-07-29T14:45:12.683Z,29.87
2022-07-29T14:47:42.795Z,29.45
2022-07-29T14:50:11.839Z,29.79
2022-07-29T14:52:40.797Z,29.50
2022-07-29T14:55:19.979Z,29.15
2022-07-29T14:57:51.182Z,29.56
2022-07-29T15:00:21.958Z,29.43
2022-07-29T15:03:06.524Z,29.25
2022-07-29T15:05:40.299Z,30.89
2022-07-29T15:08:10.069Z,31.78
2022-07-29T15:10:39.035Z,31.24
2022-07-29T15:13:09.247Z,31.58
2022-07-29T15:15:39.766Z,31.71
2022-07-29T15:18:08.584Z,31.87
2022-07-29T15:20:37.574Z,32.53
2022-07-29T15:23:06.351Z,32.36
2022-07-29T15:25:37.483Z,32.29
2022-07-29T15:28:08.174Z,32.20
2022-07-29T15:30:41.973Z,32.62
2022-07-29T15:33:11.339Z,32.72
2022-07-29T15:35:40.927Z,32.90
2022-07-29T15:38:10.391Z,32.87
2022-07-29T15:40:40.285Z,33.45
2022-07-29T15:43:09.707Z,33.87
2022-07-29T15:45:40.920Z,33.78
2022-07-29T15:48:14.713Z,33.34
2022-07-29T15:50:47.099Z,33.54
2022-07-29T15:53:16.427Z,33.37
2022-07-29T15:55:47.488Z,33.33
2022-07-29T15:58:16.246Z,33.96
2022-07-29T16:00:50.974Z,33.85
2022-07-29T16:03:21.195Z,33.50
2022-07-29T16:05:50.042Z,34.10
2022-07-29T16:08:18.786Z,34.37
2022-07-29T16:10:47.654Z,33.94
2022-07-29T16:13:17.816Z,33.89
2022-07-29T16:16:02.751Z,33.50
2022-07-29T16:18:32.202Z,33.89
2022-07-29T16:21:00.952Z,33.91
2022-07-29T16:23:29.684Z,34.28
2022-07-29T16:26:00.615Z,34.09
2022-07-29T16:28:29.983Z,33.50
2022-07-29T16:31:00.609Z,33.45
2022-07-29T16:33:54.798Z,34.37
2022-07-29T16:36:18.824Z,33.93
2022-07-29T16:38:48.355Z,33.71
2022-07-29T16:41:17.262Z,33.82
2022-07-29T16:43:46.326Z,33.95
2022-07-29T16:46:19.042Z,33.99
2022-07-29T16:48:48.546Z,33.78
2022-07-29T16:51:17.447Z,33.79
2022-07-29T16:53:50.382Z,33.00
2022-07-29T16:56:20.453Z,33.50
2022-07-29T16:58:49.352Z,33.50
2022-07-29T17:01:20.049Z,33.54
2022-07-29T17:04:06.143Z,33.29
2022-07-29T17:06:35.391Z,33.58
2022-07-29T17:09:05.339Z,33.75
2022-07-29T17:11:53.333Z,33.52
2022-07-29T17:14:25.223Z,33.42
2022-07-29T17:17:02.400Z,33.24
2022-07-29T17:19:34.016Z,33.83
2022-07-29T17:22:10.598Z,33.50
2022-07-29T17:24:41.106Z,34.07
2022-07-29T17:27:10.389Z,34.22
2022-07-29T17:29:40.738Z,33.95
2022-07-29T17:32:11.795Z,34.28
2022-07-29T17:34:41.816Z,34.56
2022-07-29T17:37:12.302Z,34.48
2022-07-29T17:39:43.432Z,34.57
2022-07-29T17:42:14.524Z,34.50
2022-07-29T17:44:43.522Z,34.90
2022-07-29T17:47:15.575Z,34.96
2022-07-29T17:49:45.385Z,34.71
2022-07-29T17:52:14.542Z,34.80
2022-07-29T17:54:43.363Z,35.22
2022-07-29T17:57:12.398Z,35.45
2022-07-29T17:59:42.218Z,35.23
2022-07-29T18:02:12.886Z,35.58
2022-07-29T18:04:41.775Z,35.71
2022-07-29T18:07:11.805Z,35.85
2022-07-29T18:09:40.715Z,35.78
2022-07-29T18:12:10.518Z,35.96
2022-07-29T18:14:39.767Z,36.25
2022-07-29T18:17:08.878Z,36.49
2022-07-29T18:19:39.131Z,36.53
2022-07-29T18:22:10.420Z,36.86
2022-07-29T18:24:39.209Z,36.96
2022-07-29T18:27:07.954Z,36.83
2022-07-29T18:29:36.848Z,36.65
2022-07-29T18:32:06.008Z,36.68
2022-07-29T18:34:34.803Z,36.71
2022-07-29T18:37:05.890Z,36.99
2022-07-29T18:39:34.732Z,36.87
2022-07-29T18:42:03.528Z,37.18
2022-07-29T18:44:33.412Z,37.45
2022-07-29T18:47:12.555Z,37.47
2022-07-29T18:49:42.099Z,37.74
2022-07-29T18:52:12.691Z,37.49
2022-07-29T18:54:41.498Z,37.77
2022-07-29T18:57:54.558Z,37.90
2022-07-29T18:59:59.245Z,38.00
2022-07-29T19:02:28.464Z,37.96
2022-07-29T19:04:57.366Z,38.27
2022-07-29T19:07:27.581Z,38.56
2022-07-29T19:09:56.384Z,38.43
2022-07-29T19:12:25.118Z,38.76
2022-07-29T19:14:53.911Z,39.24
2022-07-29T19:17:24.083Z,39.39
2022-07-29T19:19:54.118Z,39.42
2022-07-29T19:22:23.345Z,39.87
2022-07-29T19:24:54.752Z,40.40
2022-07-29T19:27:23.643Z,40.68
2022-07-29T19:29:52.536Z,41.00
2022-07-29T19:32:24.491Z,40.94
2022-07-29T19:35:11.733Z,41.39
2022-07-29T19:37:40.557Z,41.33
2022-07-29T19:40:12.421Z,41.88
2022-07-29T19:42:41.342Z,42.08
2022-07-29T19:45:11.161Z,41.84
2022-07-29T19:47:40.019Z,42.82
2022-07-29T19:50:10.374Z,43.64
2022-07-29T19:52:39.334Z,43.86
2022-07-29T19:55:08.955Z,44.11
2022-07-29T19:57:41.173Z,43.61
2022-07-29T20:00:11.669Z,43.91
2022-07-29T20:02:41.923Z,44.04
2022-07-29T20:05:11.733Z,44.05
2022-07-29T20:07:41.210Z,43.95
2022-07-29T20:10:12.239Z,44.14
2022-07-29T20:12:42.951Z,44.25
2022-07-29T20:15:14.782Z,44.17
2022-07-29T20:17:45.546Z,43.86
2022-07-29T20:20:14.531Z,44.22
2022-07-29T20:22:43.321Z,43.59
2022-07-29T20:25:13.637Z,43.43
2022-07-29T20:27:43.905Z,43.41
2022-07-29T20:30:14.575Z,43.76
2022-07-29T20:32:43.496Z,43.71
2022-07-29T20:35:12.311Z,43.61
2022-07-29T20:37:52.079Z,43.30
2022-07-29T20:40:26.348Z,43.87
2022-07-29T20:42:57.357Z,43.99
2022-07-29T20:45:27.035Z,44.09
2022-07-29T20:47:55.946Z,44.53
2022-07-29T20:50:25.022Z,44.36
2022-07-29T20:52:54.183Z,44.79
2022-07-29T20:55:22.968Z,44.82
2022-07-29T20:57:51.780Z,44.90
2022-07-29T21:00:22.088Z,45.25
2022-07-29T21:02:51.031Z,44.72
2022-07-29T21:05:19.819Z,44.82
2022-07-29T21:07:48.633Z,45.01
2022-07-29T21:10:18.521Z,45.03
2022-07-29T21:12:48.034Z,44.65
2022-07-29T21:15:16.939Z,45.26
2022-07-29T21:17:48.298Z,44.94
2022-07-29T21:20:18.536Z,44.93
2022-07-29T21:22:47.407Z,45.31
2022-07-29T21:25:16.160Z,45.24
2022-07-29T21:28:02.080Z,45.56
2022-07-29T21:30:30.853Z,45.74
2022-07-29T21:33:01.159Z,45.48
2022-07-29T21:36:01.690Z,45.37
2022-07-29T21:38:19.674Z,45.61
2022-07-29T21:40:51.455Z,45.62
2022-07-29T21:43:21.166Z,45.79
2022-07-29T21:45:50.873Z,46.01
2022-07-29T21:48:22.362Z,45.60
2022-07-29T21:50:52.048Z,45.65
2022-07-29T21:53:22.908Z,45.68
2022-07-29T21:55:52.226Z,45.93
2022-07-29T21:58:25.819Z,45.83
2022-07-29T22:00:54.770Z,45.92
2022-07-29T22:03:25.046Z,46.11
2022-07-29T22:05:54.445Z,45.69
2022-07-29T22:08:23.118Z,45.90
2022-07-29T22:10:52.064Z,46.06
2022-07-29T22:13:20.827Z,46.12
2022-07-29T22:15:49.710Z,46.48
2022-07-29T22:18:19.505Z,46.24
2022-07-29T22:20:51.731Z,46.59
2022-07-29T22:23:20.503Z,46.48
2022-07-29T22:25:49.376Z,46.43
2022-07-29T22:28:18.082Z,46.22
2022-07-29T22:30:46.979Z,46.03
2022-07-29T22:33:17.730Z,46.26
2022-07-29T22:35:48.656Z,46.08
2022-07-29T22:38:19.677Z,46.02
2022-07-29T22:40:50.673Z,46.23
2022-07-29T22:43:19.685Z,46.14
2022-07-29T22:45:48.570Z,45.82
2022-07-29T22:48:17.391Z,46.47
2022-07-29T22:50:46.174Z,46.62
2022-07-29T22:53:14.947Z,46.76
2022-07-29T22:55:45.194Z,46.61
2022-07-29T22:58:13.992Z,46.64
2022-07-29T23:00:42.748Z,46.71
2022-07-29T23:03:11.533Z,46.58
2022-07-29T23:05:40.332Z,46.45
2022-07-29T23:08:09.215Z,46.56
2022-07-29T23:10:38.023Z,46.81
2022-07-29T23:13:08.353Z,47.35
2022-07-29T23:15:39.116Z,47.37
2022-07-29T23:18:08.053Z,47.62
2022-07-29T23:20:37.147Z,47.44
2022-07-29T23:23:05.960Z,47.62
2022-07-29T23:25:34.773Z,47.56
2022-07-29T23:28:03.694Z,47.71
2022-07-29T23:30:34.220Z,47.86
2022-07-29T23:33:03.156Z,48.12
2022-07-29T23:35:31.867Z,48.19
2022-07-29T23:38:00.723Z,48.60
2022-07-29T23:40:29.819Z,48.62
2022-07-29T23:42:58.702Z,48.78
2022-07-29T23:45:42.609Z,48.85
2022-07-29T23:48:15.679Z,49.10
2022-07-29T23:50:44.453Z,48.96
2022-07-29T23:53:13.510Z,49.18
2022-07-29T23:55:42.378Z,49.32
2022-07-29T23:58:11.149Z,49.42
